Time;durP1;ratioP1;P1;durP2;ratioP2;P2;SDS_P1;SDS_P2;PMS_P1;PMS_P2;Temp;Humidity;BMP_temperature;BMP_pressure;BME280_temperature;BME280_humidity;BME280_pressure;Samples;Min_cycle;Max_cycle;Signal;HPM_P1;HPM_P2
2020/02/08 00:01:30;;;;;;;49;42.3;;;;;;;;;;;;;
2020/02/08 00:03:55;;;;;;;46.7;41.8;;;;;;;;;;;;;
2020/02/08 00:06:20;;;;;;;43.9;39.1;;;;;;;;;;;;;
2020/02/08 00:08:45;;;;;;;40.9;36.5;;;;;;;;;;;;;
2020/02/08 00:11:10;;;;;;;42.3;37.8;;;;;;;;;;;;;
2020/02/08 00:13:35;;;;;;;42.6;37.6;;;;;;;;;;;;;
2020/02/08 00:16:00;;;;;;;41.1;36.7;;;;;;;;;;;;;
2020/02/08 00:18:26;;;;;;;41.4;37;;;;;;;;;;;;;
2020/02/08 00:20:51;;;;;;;41.7;37.4;;;;;;;;;;;;;
2020/02/08 00:23:16;;;;;;;40.9;36.6;;;;;;;;;;;;;
2020/02/08 00:28:12;;;;;;;41.4;36.9;;;;;;;;;;;;;
2020/02/08 00:30:42;;;;;;;40.4;36.2;;;;;;;;;;;;;
2020/02/08 00:33:17;;;;;;;41.8;37.5;;;;;;;;;;;;;
2020/02/08 00:35:49;;;;;;;41.6;37.2;;;;;;;;;;;;;
2020/02/08 00:38:54;;;;;;;41.8;37.4;;;;;;;;;;;;;
2020/02/08 00:40:14;;;;;;;42.6;38;;;;;;;;;;;;;
2020/02/08 00:42:37;;;;;;;41.8;37.5;;;;;;;;;;;;;
2020/02/08 00:45:02;;;;;;;43.9;39.2;;;;;;;;;;;;;
2020/02/08 00:47:27;;;;;;;44.4;39.5;;;;;;;;;;;;;
2020/02/08 00:49:52;;;;;;;41.9;37.5;;;;;;;;;;;;;
2020/02/08 00:52:17;;;;;;;44.5;39.4;;;;;;;;;;;;;
2020/02/08 00:54:42;;;;;;;41.7;37.3;;;;;;;;;;;;;
2020/02/08 00:57:08;;;;;;;44;39.2;;;;;;;;;;;;;
2020/02/08 00:59:33;;;;;;;43.7;38.9;;;;;;;;;;;;;
2020/02/08 01:01:58;;;;;;;45;40.1;;;;;;;;;;;;;
2020/02/08 01:04:23;;;;;;;41.8;37.3;;;;;;;;;;;;;
2020/02/08 01:06:48;;;;;;;46;40.1;;;;;;;;;;;;;
2020/02/08 01:09:13;;;;;;;45.8;40.7;;;;;;;;;;;;;
2020/02/08 01:11:38;;;;;;;43.9;39.1;;;;;;;;;;;;;
2020/02/08 01:14:08;;;;;;;42.5;38;;;;;;;;;;;;;
2020/02/08 01:16:39;;;;;;;43.8;39.2;;;;;;;;;;;;;
2020/02/08 01:25:06;;;;;;;44.7;40.1;;;;;;;;;;;;;
2020/02/08 01:27:25;;;;;;;45;40.1;;;;;;;;;;;;;
2020/02/08 01:29:47;;;;;;;44.3;39.5;;;;;;;;;;;;;
2020/02/08 01:32:07;;;;;;;43.4;38.8;;;;;;;;;;;;;
2020/02/08 01:34:33;;;;;;;44.1;39.3;;;;;;;;;;;;;
2020/02/08 01:36:54;;;;;;;42.6;38;;;;;;;;;;;;;
2020/02/08 01:39:32;;;;;;;44.8;39.9;;;;;;;;;;;;;
2020/02/08 01:41:54;;;;;;;43.6;39;;;;;;;;;;;;;
2020/02/08 01:44:13;;;;;;;44.6;39.7;;;;;;;;;;;;;
2020/02/08 01:46:34;;;;;;;45.2;40.3;;;;;;;;;;;;;
2020/02/08 01:51:27;;;;;;;43.9;39.3;;;;;;;;;;;;;
2020/02/08 01:53:51;;;;;;;45.5;40.2;;;;;;;;;;;;;
2020/02/08 01:56:32;;;;;;;47.1;42.1;;;;;;;;;;;;;
2020/02/08 01:58:44;;;;;;;43.5;38.9;;;;;;;;;;;;;
2020/02/08 02:01:10;;;;;;;42.8;38.3;;;;;;;;;;;;;
2020/02/08 02:03:50;;;;;;;45.7;40.2;;;;;;;;;;;;;
2020/02/08 02:06:00;;;;;;;43;38.4;;;;;;;;;;;;;
2020/02/08 02:13:18;;;;;;;44.3;39.6;;;;;;;;;;;;;
2020/02/08 02:15:45;;;;;;;47.1;42;;;;;;;;;;;;;
2020/02/08 02:18:14;;;;;;;46.2;41.2;;;;;;;;;;;;;
2020/02/08 02:20:38;;;;;;;44.4;39.5;;;;;;;;;;;;;
2020/02/08 02:25:20;;;;;;;48.9;42.7;;;;;;;;;;;;;
2020/02/08 02:27:48;;;;;;;47.7;42.5;;;;;;;;;;;;;
2020/02/08 02:30:14;;;;;;;45.9;40.8;;;;;;;;;;;;;
2020/02/08 02:35:25;;;;;;;43.6;39;;;;;;;;;;;;;
2020/02/08 02:41:36;;;;;;;47.1;40.7;;;;;;;;;;;;;
2020/02/08 02:47:20;;;;;;;43.3;38.7;;;;;;;;;;;;;
2020/02/08 02:49:44;;;;;;;42.9;38.4;;;;;;;;;;;;;
2020/02/08 02:51:57;;;;;;;43.3;38.8;;;;;;;;;;;;;
2020/02/08 02:54:41;;;;;;;44;39.2;;;;;;;;;;;;;
2020/02/08 02:56:53;;;;;;;45;40.1;;;;;;;;;;;;;
2020/02/08 02:59:21;;;;;;;44.3;38.9;;;;;;;;;;;;;
2020/02/08 03:04:27;;;;;;;45.3;39.1;;;;;;;;;;;;;
2020/02/08 03:06:46;;;;;;;43.6;38.8;;;;;;;;;;;;;
2020/02/08 03:09:32;;;;;;;40.6;36.2;;;;;;;;;;;;;
2020/02/08 03:11:27;;;;;;;41.1;36.6;;;;;;;;;;;;;
2020/02/08 03:16:47;;;;;;;44.2;37.5;;;;;;;;;;;;;
2020/02/08 03:18:39;;;;;;;42.5;37.5;;;;;;;;;;;;;
2020/02/08 03:21:18;;;;;;;45;38.7;;;;;;;;;;;;;
2020/02/08 03:23:32;;;;;;;40.8;36.4;;;;;;;;;;;;;
2020/02/08 03:28:22;;;;;;;39;34.9;;;;;;;;;;;;;
2020/02/08 03:33:09;;;;;;;41.4;36.9;;;;;;;;;;;;;
2020/02/08 03:38:14;;;;;;;47;40.6;;;;;;;;;;;;;
2020/02/08 03:41:22;;;;;;;41.7;37.3;;;;;;;;;;;;;
2020/02/08 03:45:32;;;;;;;45.6;39;;;;;;;;;;;;;
2020/02/08 03:50:27;;;;;;;40.6;36.2;;;;;;;;;;;;;
2020/02/08 03:53:07;;;;;;;38.2;34.1;;;;;;;;;;;;;
2020/02/08 03:55:24;;;;;;;39.6;35.3;;;;;;;;;;;;;
2020/02/08 03:57:36;;;;;;;38.3;34.1;;;;;;;;;;;;;
2020/02/08 03:59:53;;;;;;;37.5;33.4;;;;;;;;;;;;;
2020/02/08 04:02:27;;;;;;;36.1;32.3;;;;;;;-1.05;97.23926;965.7994;;;;
2020/02/08 04:04:53;;;;;;;39.3;35.1;;;;;;;-1.15;97.14746;965.7867;;;;
2020/02/08 04:07:18;;;;;;;38.2;33.4;;;;;;;-1.1;97.65039;965.7656;;;;
2020/02/08 04:09:43;;;;;;;40;34.4;;;;;;;-1.15;97.04883;965.7623;;;;
2020/02/08 04:12:08;;;;;;;38;34;;;;;;;-1.16;97.38086;965.7096;;;;
2020/02/08 04:14:33;;;;;;;37.7;33.6;;;;;;;-1.17;97.55762;965.6495;;;;
2020/02/08 04:16:58;;;;;;;36;32.2;;;;;;;-1.05;97.30469;965.6124;;;;
2020/02/08 04:19:23;;;;;;;34.8;31.1;;;;;;;-1.02;97.09766;965.6994;;;;
2020/02/08 04:21:49;;;;;;;35.1;31.3;;;;;;;-1.04;97.16309;965.7048;;;;
2020/02/08 04:24:14;;;;;;;34.6;31;;;;;;;-1.02;96.65234;965.7173;;;;
2020/02/08 04:26:39;;;;;;;36.2;32.3;;;;;;;-1.07;96.89941;965.7626;;;;
2020/02/08 04:29:04;;;;;;;34.7;31;;;;;;;-1.09;96.91309;965.8477;;;;
2020/02/08 04:31:29;;;;;;;35.4;31.7;;;;;;;-1.06;96.6084;965.8158;;;;
2020/02/08 04:33:54;;;;;;;37.6;31.3;;;;;;;-1.09;96.39844;965.7758;;;;
2020/02/08 04:36:19;;;;;;;34;30.4;;;;;;;-1.2;96.67773;965.7687;;;;
2020/02/08 04:38:44;;;;;;;36.1;31.8;;;;;;;-1.24;96.88086;965.8506;;;;
2020/02/08 04:41:09;;;;;;;37.5;33.4;;;;;;;-1.31;97.66992;965.8758;;;;
2020/02/08 04:43:34;;;;;;;36.6;32.7;;;;;;;-1.26;97.99414;965.8688;;;;
2020/02/08 04:45:59;;;;;;;37.5;33.1;;;;;;;-1.25;97.61719;965.8142;;;;
2020/02/08 04:48:24;;;;;;;38.6;34.4;;;;;;;-1.3;97.68359;965.8461;;;;
2020/02/08 04:50:49;;;;;;;38.6;33.8;;;;;;;-1.28;97.85742;965.903;;;;
2020/02/08 04:53:15;;;;;;;34.7;31;;;;;;;-1.07;96.86328;965.8753;;;;
2020/02/08 04:55:40;;;;;;;35.5;31.7;;;;;;;-1.1;96.19434;965.8465;;;;
2020/02/08 04:58:05;;;;;;;37.1;31.5;;;;;;;-1.13;96.57813;965.9409;;;;
2020/02/08 05:00:30;;;;;;;35.7;31.5;;;;;;;-1.2;96.16113;965.8851;;;;
2020/02/08 05:02:55;;;;;;;34.5;30.8;;;;;;;-1.11;95.70215;965.8525;;;;
2020/02/08 05:05:20;;;;;;;36.6;31.4;;;;;;;-1.22;95.94434;965.9504;;;;
2020/02/08 05:07:45;;;;;;;34.6;31;;;;;;;-1.24;96.4668;965.9945;;;;
2020/02/08 05:10:11;;;;;;;33.4;30;;;;;;;-1.18;95.96387;965.9699;;;;
2020/02/08 05:12:36;;;;;;;34;30.3;;;;;;;-1.18;95.69727;965.9031;;;;
2020/02/08 05:15:01;;;;;;;32.8;29.3;;;;;;;-1.26;95.88965;965.8555;;;;
2020/02/08 05:17:26;;;;;;;32.6;29.2;;;;;;;-1.26;96.02344;965.8577;;;;
2020/02/08 05:19:51;;;;;;;34.3;30.6;;;;;;;-1.28;95.4375;965.9037;;;;
2020/02/08 05:22:16;;;;;;;34;30.3;;;;;;;-1.33;95.7207;965.8649;;;;
2020/02/08 05:24:42;;;;;;;33;29.4;;;;;;;-1.27;96.19141;965.8599;;;;
2020/02/08 05:27:13;;;;;;;33.7;30;;;;;;;-1.27;96.21387;965.8829;;;;
2020/02/08 05:29:33;;;;;;;32.1;28.8;;;;;;;-1.27;95.69922;965.8899;;;;
2020/02/08 05:31:57;;;;;;;32.8;29.3;;;;;;;-1.34;96.16406;965.8794;;;;
2020/02/08 05:34:22;;;;;;;32.4;28.7;;;;;;;-1.29;96.04004;965.9548;;;;
2020/02/08 05:36:47;;;;;;;33.8;29.4;;;;;;;-1.45;95.8916;965.9348;;;;
2020/02/08 05:39:12;;;;;;;33.5;29.9;;;;;;;-1.59;96.01758;965.9724;;;;
2020/02/08 05:41:39;;;;;;;34.7;29.3;;;;;;;-1.52;96.13184;965.9663;;;;
2020/02/08 05:44:04;;;;;;;29.9;26.8;;;;;;;-1.36;96.26074;965.9497;;;;
2020/02/08 05:46:29;;;;;;;29;25.9;;;;;;;-1.23;95.58203;966.0251;;;;
2020/02/08 05:48:54;;;;;;;31.8;27.8;;;;;;;-1.28;94.95801;965.9973;;;;
2020/02/08 05:51:19;;;;;;;31;27.6;;;;;;;-1.29;95.95215;965.9641;;;;
2020/02/08 05:53:44;;;;;;;29.7;26.5;;;;;;;-1.23;95.53711;965.9916;;;;
2020/02/08 05:56:09;;;;;;;29.5;26.3;;;;;;;-1.25;94.97559;965.9836;;;;
2020/02/08 05:58:34;;;;;;;29.5;26.4;;;;;;;-1.23;95.0332;966.0316;;;;
2020/02/08 06:00:59;;;;;;;28.9;25.9;;;;;;;-1.24;94.56348;966.0405;;;;
2020/02/08 06:03:25;;;;;;;30.3;27.2;;;;;;;-1.31;95.46289;966.0475;;;;
2020/02/08 06:05:50;;;;;;;30.3;27.1;;;;;;;-1.31;94.66992;966.0645;;;;
2020/02/08 06:08:15;;;;;;;28.2;25.2;;;;;;;-1.2;94.60645;966.0822;;;;
2020/02/08 06:10:41;;;;;;;30.9;27.5;;;;;;;-1.23;94.50879;966.0837;;;;
2020/02/08 06:13:06;;;;;;;29.6;26.5;;;;;;;-1.3;94.63867;966.0945;;;;
2020/02/08 06:15:31;;;;;;;27.7;24.8;;;;;;;-1.22;94.14355;966.0706;;;;
2020/02/08 06:17:56;;;;;;;28.7;25.6;;;;;;;-1.22;94.71289;966.0837;;;;
2020/02/08 06:20:21;;;;;;;26.8;23.9;;;;;;;-1.24;94.01465;966.1445;;;;
2020/02/08 06:22:47;;;;;;;26.5;23.6;;;;;;;-1.21;93.98926;966.1097;;;;
2020/02/08 06:25:16;;;;;;;26.5;23.7;;;;;;;-1.19;94.65137;966.1275;;;;
2020/02/08 06:27:41;;;;;;;25.3;22.6;;;;;;;-1.29;93.9375;966.1256;;;;
2020/02/08 06:30:07;;;;;;;26.2;23.2;;;;;;;-1.26;94.3125;966.1537;;;;
2020/02/08 06:32:32;;;;;;;24.7;22;;;;;;;-1.06;93.8418;966.1635;;;;
2020/02/08 06:34:57;;;;;;;25.3;22.6;;;;;;;-1.11;93.14648;966.1573;;;;
2020/02/08 06:37:22;;;;;;;26.2;23.2;;;;;;;-1.21;93.99805;966.1867;;;;
2020/02/08 06:39:48;;;;;;;24;21.6;;;;;;;-1.16;94.01953;966.1602;;;;
2020/02/08 06:42:13;;;;;;;24.3;21.7;;;;;;;-1.22;94.16602;966.1976;;;;
2020/02/08 06:44:38;;;;;;;23.7;21.1;;;;;;;-1.19;94.33789;966.2885;;;;
2020/02/08 06:47:03;;;;;;;23.9;21.4;;;;;;;-1.25;93.29395;966.2573;;;;
2020/02/08 06:49:28;;;;;;;23.3;20.9;;;;;;;-1.25;93.72168;966.3063;;;;
2020/02/08 06:51:54;;;;;;;23.7;21.1;;;;;;;-1.3;93.04883;966.4398;;;;
2020/02/08 06:54:19;;;;;;;22.5;20.1;;;;;;;-1.21;93.33789;966.4377;;;;
2020/02/08 06:56:44;;;;;;;23;20.5;;;;;;;-1.19;92.91602;966.4899;;;;
2020/02/08 06:59:10;;;;;;;22.6;20.2;;;;;;;-1.11;93.14648;966.5722;;;;
2020/02/08 07:01:35;;;;;;;21.8;19.6;;;;;;;-1.13;93.5127;966.5402;;;;
2020/02/08 07:04:00;;;;;;;23.2;18.9;;;;;;;-1.05;92.75781;966.5025;;;;
2020/02/08 07:06:25;;;;;;;22.6;19.6;;;;;;;-1.06;93.03516;966.4875;;;;
2020/02/08 07:08:50;;;;;;;23.6;20.5;;;;;;;-1.04;92.76172;966.5764;;;;
2020/02/08 07:11:15;;;;;;;24.5;21.4;;;;;;;-1.18;93.41309;966.5787;;;;
2020/02/08 07:13:40;;;;;;;25.3;22.6;;;;;;;-1.3;94.33691;966.6135;;;;
2020/02/08 07:16:05;;;;;;;25.9;22.8;;;;;;;-1.34;94.69727;966.558;;;;
2020/02/08 07:18:30;;;;;;;23.8;21.3;;;;;;;-1.2;94.29102;966.6142;;;;
2020/02/08 07:20:55;;;;;;;25;22;;;;;;;-1.07;94.0957;966.625;;;;
2020/02/08 07:23:20;;;;;;;24.6;22;;;;;;;-0.94;93.12891;966.6475;;;;
2020/02/08 07:25:45;;;;;;;25.8;22.6;;;;;;;-1;92.79004;966.6197;;;;
2020/02/08 07:28:11;;;;;;;25.6;22.8;;;;;;;-1.08;92.97363;966.673;;;;
2020/02/08 07:30:36;;;;;;;27;24.2;;;;;;;-0.96;92.98047;966.6465;;;;
2020/02/08 07:33:01;;;;;;;26.4;23.7;;;;;;;-0.97;92.60742;966.6261;;;;
2020/02/08 07:35:29;;;;;;;24.6;22;;;;;;;-0.95;92.51074;966.6255;;;;
2020/02/08 07:37:54;;;;;;;23;20.1;;;;;;;-0.82;91.76465;966.5787;;;;
2020/02/08 07:40:19;;;;;;;21.8;19.6;;;;;;;-0.75;90.71582;966.6492;;;;
2020/02/08 07:42:44;;;;;;;19.6;17.6;;;;;;;-0.51;90.16211;966.5837;;;;
2020/02/08 07:45:09;;;;;;;19.5;17.5;;;;;;;-0.59;90.26855;966.6398;;;;
2020/02/08 07:47:35;;;;;;;19.2;17.1;;;;;;;-0.35;89.41113;966.5815;;;;
2020/02/08 07:50:00;;;;;;;18.5;16.6;;;;;;;-0.41;88.54785;966.6559;;;;
2020/02/08 07:52:25;;;;;;;18.6;16.6;;;;;;;-0.52;88.37695;966.6964;;;;
2020/02/08 07:54:50;;;;;;;17.3;15.5;;;;;;;-0.32;88.07227;966.733;;;;
2020/02/08 07:57:15;;;;;;;17.6;15.1;;;;;;;-0.57;87.60547;966.7473;;;;
2020/02/08 07:59:41;;;;;;;18.1;15.8;;;;;;;-0.47;88.55664;966.7156;;;;
2020/02/08 08:02:06;;;;;;;17.2;15.4;;;;;;;-0.31;87.47949;966.7032;;;;
2020/02/08 08:04:31;;;;;;;18;15.5;;;;;;;-0.35;86.87598;966.7388;;;;
2020/02/08 08:06:56;;;;;;;17.4;15.6;;;;;;;-0.3;87.65918;966.7473;;;;
2020/02/08 08:09:22;;;;;;;17.1;14.9;;;;;;;-0.2;87.28906;966.7869;;;;
2020/02/08 08:11:47;;;;;;;16.8;15.1;;;;;;;-0.03;87.45898;966.8026;;;;
2020/02/08 08:14:12;;;;;;;16.9;15.1;;;;;;;0.01;86.72559;966.8918;;;;
2020/02/08 08:16:37;;;;;;;17.3;14.9;;;;;;;-0.04;86.6709;966.8491;;;;
2020/02/08 08:19:03;;;;;;;18;15.3;;;;;;;-0.12;86.77832;966.8451;;;;
2020/02/08 08:21:28;;;;;;;16.7;15;;;;;;;0.1;87.68848;966.7885;;;;
2020/02/08 08:23:53;;;;;;;16.1;14.4;;;;;;;0.19;87.10059;966.7465;;;;
2020/02/08 08:26:18;;;;;;;16.6;14.8;;;;;;;0.23;86.25488;966.7932;;;;
2020/02/08 08:28:43;;;;;;;16.8;14;;;;;;;;;;;;;
2020/02/08 08:31:08;;;;;;;15.5;13.7;;;;;;;;;;;;;
2020/02/08 08:33:34;;;;;;;14.8;13.3;;;;;;;;;;;;;
2020/02/08 08:35:59;;;;;;;14.5;13;;;;;;;;;;;;;
2020/02/08 08:38:24;;;;;;;15.7;13.4;;;;;;;;;;;;;
2020/02/08 08:40:49;;;;;;;14.4;12.9;;;;;;;;;;;;;
2020/02/08 08:43:14;;;;;;;17.4;13.6;;;;;;;;;;;;;
2020/02/08 08:45:39;;;;;;;15.1;13.5;;;;;;;;;;;;;
2020/02/08 08:48:04;;;;;;;14.9;13.3;;;;;;;;;;;;;
2020/02/08 08:50:29;;;;;;;15.5;13.7;;;;;;;;;;;;;
2020/02/08 08:52:54;;;;;;;15.8;14;;;;;;;;;;;;;
2020/02/08 08:55:20;;;;;;;15.2;13.6;;;;;;;;;;;;;
2020/02/08 08:57:45;;;;;;;16.3;14.6;;;;;;;;;;;;;
2020/02/08 09:00:10;;;;;;;15.3;13.2;;;;;;;;;;;;;
2020/02/08 09:02:35;;;;;;;18.1;14;;;;;;;;;;;;;
2020/02/08 09:05:00;;;;;;;15.7;13.8;;;;;;;;;;;;;
2020/02/08 09:07:25;;;;;;;18.7;14.4;;;;;;;;;;;;;
2020/02/08 09:09:50;;;;;;;19.2;13.8;;;;;;;;;;;;;
2020/02/08 09:12:15;;;;;;;21.7;15.3;;;;;;;;;;;;;
2020/02/08 09:14:40;;;;;;;20.3;15.2;;;;;;;;;;;;;
2020/02/08 09:17:06;;;;;;;17.8;13.7;;;;;;;;;;;;;
2020/02/08 09:19:31;;;;;;;16.6;14;;;;;;;;;;;;;
2020/02/08 09:21:56;;;;;;;16.8;14.4;;;;;;;;;;;;;
2020/02/08 09:24:21;;;;;;;18.7;15.1;;;;;;;;;;;;;
2020/02/08 09:26:46;;;;;;;17.9;14.1;;;;;;;;;;;;;
2020/02/08 09:29:12;;;;;;;19.6;14.2;;;;;;;;;;;;;
2020/02/08 09:31:37;;;;;;;20;15.1;;;;;;;;;;;;;
2020/02/08 09:34:02;;;;;;;16.7;14.6;;;;;;;;;;;;;
2020/02/08 09:36:27;;;;;;;23.1;15.1;;;;;;;;;;;;;
2020/02/08 09:38:53;;;;;;;20.4;15.4;;;;;;;;;;;;;
2020/02/08 09:41:18;;;;;;;21;14.4;;;;;;;;;;;;;
2020/02/08 09:43:43;;;;;;;22.3;14.8;;;;;;;;;;;;;
2020/02/08 09:46:13;;;;;;;16.9;14.6;;;;;;;;;;;;;
2020/02/08 09:48:38;;;;;;;16.4;14.3;;;;;;;;;;;;;
2020/02/08 09:51:03;;;;;;;15.7;14;;;;;;;;;;;;;
2020/02/08 09:53:29;;;;;;;21.4;15.4;;;;;;;;;;;;;
2020/02/08 09:55:54;;;;;;;18.4;14.8;;;;;;;;;;;;;
2020/02/08 09:58:31;;;;;;;18.2;14.8;;;;;;;;;;;;;
2020/02/08 10:00:44;;;;;;;16.1;14.4;;;;;;;;;;;;;
2020/02/08 10:03:09;;;;;;;17.5;14.9;;;;;;;;;;;;;
2020/02/08 10:05:34;;;;;;;17.4;14.8;;;;;;;;;;;;;
2020/02/08 10:10:04;;;;;;;17.5;15.1;;;;;;;3.35;77.19238;966.8638;;;;
2020/02/08 10:12:29;;;;;;;16.9;15.2;;;;;;;3.46;76.02344;966.8936;;;;
2020/02/08 10:16:36;;;;;;;18;15.7;;;;;;;3.63;75.91797;966.9633;;;;
2020/02/08 10:19:14;;;;;;;18.2;15.7;;;;;;;3.71;75.41211;966.8741;;;;
2020/02/08 10:21:39;;;;;;;16;14.1;;;;;;;3.89;74.81055;966.8921;;;;
2020/02/08 10:24:04;;;;;;;16.1;14.1;;;;;;;3.9;74.75586;966.8456;;;;
2020/02/08 10:26:43;;;;;;;18.1;14.4;;;;;;;3.98;74.69043;966.868;;;;
2020/02/08 10:29:08;;;;;;;18.8;14.4;;;;;;;4.25;72.97949;966.7489;;;;
2020/02/08 10:31:33;;;;;;;19.5;15;;;;;;;4.37;72.77246;966.7805;;;;
2020/02/08 10:33:58;;;;;;;16.1;14.1;;;;;;;4.58;72.22852;966.7545;;;;
2020/02/08 10:36:23;;;;;;;19;14.7;;;;;;;4.6;72.06348;966.7686;;;;
2020/02/08 10:39:49;;;;;;;17.4;14;;;;;;;4.73;71.48242;966.7279;;;;
2020/02/08 10:42:14;;;;;;;16.3;14.4;;;;;;;4.65;72.25195;966.7551;;;;
2020/02/08 10:44:39;;;;;;;17.2;14.4;;;;;;;4.78;71.06055;966.7264;;;;
2020/02/08 10:49:05;;;;;;;17.1;14.6;;;;;;;4.97;69.48926;966.6758;;;;
2020/02/08 10:51:40;;;;;;;16.4;14;;;;;;;5.05;69.45703;966.6386;;;;
2020/02/08 10:54:24;;;;;;;16.7;13.3;;;;;;;5.2;67.74316;966.5811;;;;
2020/02/08 10:56:49;;;;;;;16.1;13.9;;;;;;;5.21;67.84668;966.5961;;;;
2020/02/08 10:59:14;;;;;;;15.9;13.3;;;;;;;5.26;68.37695;966.613;;;;
2020/02/08 11:01:39;;;;;;;16.9;13.7;;;;;;;5.32;67.50098;966.5676;;;;
2020/02/08 11:04:04;;;;;;;17.7;13.5;;;;;;;5.41;67.12793;966.5381;;;;
2020/02/08 11:06:29;;;;;;;17.1;13.5;;;;;;;5.45;67.32813;966.4741;;;;
2020/02/08 11:08:54;;;;;;;19;14;;;;;;;5.61;67.2627;966.4042;;;;
2020/02/08 11:11:19;;;;;;;15.7;13.9;;;;;;;5.61;67.11426;966.3737;;;;
2020/02/08 11:13:44;;;;;;;16.8;14.5;;;;;;;5.73;66.71191;966.3494;;;;
2020/02/08 11:16:10;;;;;;;16.2;14.1;;;;;;;5.71;65.85547;966.2996;;;;
2020/02/08 11:18:35;;;;;;;16.4;13.4;;;;;;;5.8;66.77832;966.2961;;;;
2020/02/08 11:21:01;;;;;;;15.2;13.4;;;;;;;5.96;66.00781;966.242;;;;
2020/02/08 11:23:26;;;;;;;16.4;13.8;;;;;;;6.09;65.58301;966.257;;;;
2020/02/08 11:25:57;;;;;;;15.4;13.6;;;;;;;6.09;65.74121;966.2584;;;;
2020/02/08 11:28:16;;;;;;;15.7;13.8;;;;;;;6.1;65.70996;966.25;;;;
2020/02/08 11:30:41;;;;;;;17.1;13.9;;;;;;;6;66.11621;966.277;;;;
2020/02/08 11:33:06;;;;;;;15.4;13.8;;;;;;;6.18;65.18652;966.2248;;;;
2020/02/08 11:35:31;;;;;;;15.9;13.9;;;;;;;6.28;64.79102;966.2155;;;;
2020/02/08 11:37:56;;;;;;;15.3;13.3;;;;;;;6.44;64.47363;966.1736;;;;
2020/02/08 11:40:21;;;;;;;15.3;13.1;;;;;;;6.5;64.49414;966.1781;;;;
2020/02/08 11:42:46;;;;;;;16.2;13.3;;;;;;;6.37;64.55371;966.1958;;;;
2020/02/08 11:45:12;;;;;;;16.1;14.1;;;;;;;6.24;65.2627;966.2112;;;;
2020/02/08 11:47:37;;;;;;;15;13.4;;;;;;;6.39;64.90039;966.1294;;;;
2020/02/08 11:50:02;;;;;;;16;13.8;;;;;;;6.42;65.38281;966.1394;;;;
2020/02/08 11:52:27;;;;;;;16.5;14.2;;;;;;;6.56;64.99414;966.1994;;;;
2020/02/08 11:54:52;;;;;;;18.3;14.7;;;;;;;6.66;65.03223;966.1592;;;;
2020/02/08 11:57:17;;;;;;;15.3;13.7;;;;;;;6.8;63.93457;966.2197;;;;
2020/02/08 11:59:42;;;;;;;17;14.3;;;;;;;6.82;63.83594;966.1755;;;;
2020/02/08 12:02:08;;;;;;;16.3;13.9;;;;;;;6.88;63.64941;966.1897;;;;
2020/02/08 12:04:33;;;;;;;14.8;13;;;;;;;6.95;63.45508;966.1794;;;;
2020/02/08 12:06:58;;;;;;;16.5;13;;;;;;;7.03;63.58105;966.1705;;;;
2020/02/08 12:09:24;;;;;;;13.6;12.1;;;;;;;7.16;62.27539;966.1145;;;;
2020/02/08 12:11:49;;;;;;;16.1;13;;;;;;;7.14;61.70117;966.0779;;;;
2020/02/08 12:14:14;;;;;;;14.4;12.3;;;;;;;7.19;62.14355;966.0366;;;;
2020/02/08 12:16:39;;;;;;;15.1;12.3;;;;;;;7.03;62.44043;966.0056;;;;
2020/02/08 12:19:04;;;;;;;13.2;11.5;;;;;;;7.14;62.54688;965.9579;;;;
2020/02/08 12:21:29;;;;;;;13.6;11.9;;;;;;;7.16;62.12793;965.9584;;;;
2020/02/08 12:23:54;;;;;;;13.3;11.6;;;;;;;7.23;62.29688;965.9927;;;;
2020/02/08 12:26:27;;;;;;;13.7;11.8;;;;;;;7.39;61.80664;965.968;;;;
2020/02/08 12:28:45;;;;;;;15;12;;;;;;;7.46;61.11914;965.9514;;;;
2020/02/08 12:31:10;;;;;;;14.3;11.3;;;;;;;7.38;60.75391;965.901;;;;
2020/02/08 12:33:35;;;;;;;13;11.1;;;;;;;7.42;60.60059;965.8566;;;;
2020/02/08 12:36:00;;;;;;;12.9;11.2;;;;;;;7.47;60.64063;965.86;;;;
2020/02/08 12:38:26;;;;;;;12.7;11;;;;;;;7.32;60.65527;965.8741;;;;
2020/02/08 12:40:51;;;;;;;13.8;11.1;;;;;;;7.45;60.4668;965.8212;;;;
2020/02/08 12:43:16;;;;;;;13.2;10.9;;;;;;;7.42;60.47461;965.8323;;;;
2020/02/08 12:45:42;;;;;;;15.9;10.6;;;;;;;7.53;59.79297;965.7644;;;;
2020/02/08 12:48:07;;;;;;;14.7;11;;;;;;;7.51;59.93848;965.7216;;;;
2020/02/08 12:50:32;;;;;;;13.2;10.7;;;;;;;7.63;60.04785;965.7347;;;;
2020/02/08 12:52:57;;;;;;;14.8;10.9;;;;;;;7.71;59.62305;965.6816;;;;
2020/02/08 12:55:22;;;;;;;13.4;10.2;;;;;;;7.76;58.20117;965.6367;;;;
2020/02/08 13:00:26;;;;;;;12;10.3;;;;;;;7.75;57.79883;965.6307;;;;
2020/02/08 13:02:50;;;;;;;13.2;10.1;;;;;;;7.77;58.31738;965.5964;;;;
2020/02/08 13:05:12;;;;;;;13.9;9.7;;;;;;;7.81;57.56738;965.5826;;;;
2020/02/08 13:07:43;;;;;;;12.7;9.3;;;;;;;7.81;57.10938;965.5381;;;;
2020/02/08 13:10:05;;;;;;;12.3;9.9;;;;;;;7.84;57.02148;965.5047;;;;
2020/02/08 13:12:32;;;;;;;12.1;9.3;;;;;;;7.82;57.05469;965.454;;;;
2020/02/08 13:20:03;;;;;;;10.8;9.2;;;;;;;7.98;54.4668;965.4261;;;;
2020/02/08 13:22:15;;;;;;;11.4;9.6;;;;;;;7.75;57.90137;965.4063;;;;
2020/02/08 13:24:41;;;;;;;12.7;9.5;;;;;;;7.85;56.60059;965.3619;;;;
2020/02/08 13:27:38;;;;;;;10.9;9;;;;;;;7.88;56.91309;965.3929;;;;
2020/02/08 13:31:11;;;;;;;12.4;8.4;;;;;;;8.05;56.20313;965.3819;;;;
2020/02/08 13:32:25;;;;;;;11.2;9.1;;;;;;;8.2;55.11328;965.3762;;;;
2020/02/08 13:34:23;;;;;;;10.8;8.9;;;;;;;8.16;54.10059;965.3459;;;;
2020/02/08 13:37:12;;;;;;;11;8.8;;;;;;;8.17;55.69238;965.3344;;;;
2020/02/08 13:39:10;;;;;;;12;9.1;;;;;;;8.13;55.41309;965.3214;;;;
2020/02/08 13:41:30;;;;;;;11.7;9.6;;;;;;;8.29;55.52539;965.3641;;;;
2020/02/08 13:44:03;;;;;;;11.6;9.6;;;;;;;8.29;55.75391;965.3503;;;;
2020/02/08 13:46:51;;;;;;;10.5;9.4;;;;;;;8.36;55.80859;965.3689;;;;
2020/02/08 13:48:50;;;;;;;12.4;9.1;;;;;;;8.3;53.60352;965.2864;;;;
2020/02/08 13:51:23;;;;;;;10.3;9.2;;;;;;;8.26;54.7666;965.2874;;;;
2020/02/08 13:56:34;;;;;;;12.1;9.5;;;;;;;8.39;55.88184;965.3225;;;;
2020/02/08 13:58:33;;;;;;;11.6;10;;;;;;;8.39;55.14941;965.3558;;;;
2020/02/08 14:00:53;;;;;;;12.5;10.3;;;;;;;8.52;54.45605;965.3418;;;;
2020/02/08 14:05:48;;;;;;;13.5;9.5;;;;;;;8.33;55.54102;965.3354;;;;
2020/02/08 14:08:22;;;;;;;12;9.6;;;;;;;8.33;55.2207;965.3499;;;;
2020/02/08 14:10:51;;;;;;;10.6;9.2;;;;;;;8.34;57.85645;965.36;;;;
2020/02/08 14:13:19;;;;;;;11.7;9.5;;;;;;;8.45;53.96582;965.3555;;;;
2020/02/08 14:20:23;;;;;;;12.5;9.2;;;;;;;8.66;54.12891;965.3052;;;;
2020/02/08 14:25:22;;;;;;;10.8;9.2;;;;;;;8.35;56.40332;965.2673;;;;
2020/02/08 14:33:02;;;;;;;10.4;8.8;;;;;;;8.5;53.16992;965.2941;;;;
2020/02/08 14:34:55;;;;;;;11.4;9.4;;;;;;;8.3;55.79004;965.2963;;;;
2020/02/08 14:38:02;;;;;;;11.1;9.1;;;;;;;8.24;56.9375;965.2809;;;;
2020/02/08 14:39:48;;;;;;;11.9;9;;;;;;;8.31;54.0752;965.2693;;;;
2020/02/08 14:42:24;;;;;;;12.8;9;;;;;;;8.34;55.60059;965.2772;;;;
2020/02/08 14:44:40;;;;;;;10.4;8.4;;;;;;;8.44;53.74707;965.2172;;;;
2020/02/08 14:51:50;;;;;;;11.9;9.1;;;;;;;8.39;54.95313;965.1111;;;;
2020/02/08 14:54:49;;;;;;;12.9;9.6;;;;;;;8.36;56.81543;965.1522;;;;
2020/02/08 14:56:44;;;;;;;12.3;10.2;;;;;;;8.33;56.22852;965.1227;;;;
2020/02/08 14:59:01;;;;;;;12.9;11;;;;;;;8.39;57.13086;965.117;;;;
2020/02/08 15:01:29;;;;;;;13.2;11.8;;;;;;;8.35;56.08301;965.0806;;;;
2020/02/08 15:09:02;;;;;;;14.1;11.9;;;;;;;8.2;57.39063;965.088;;;;
2020/02/08 15:12:00;;;;;;;15.3;12.1;;;;;;;8.17;58.34766;965.1111;;;;
2020/02/08 15:13:42;;;;;;;14.6;12;;;;;;;8.13;58.53711;965.1298;;;;
2020/02/08 15:18:38;;;;;;;13.8;12;;;;;;;8.01;57.73047;965.1359;;;;
2020/02/08 15:20:59;;;;;;;17.1;12.2;;;;;;;7.92;57.10254;965.1031;;;;
2020/02/08 15:23:16;;;;;;;13.9;11.6;;;;;;;7.95;57.15137;965.0353;;;;
2020/02/08 15:26:15;;;;;;;14.7;12;;;;;;;7.95;57.94043;965.0742;;;;
2020/02/08 15:30:33;;;;;;;16.4;11.6;;;;;;;7.82;57.52246;965.0994;;;;
2020/02/08 15:35:49;;;;;;;14.1;11.2;;;;;;;7.72;59.56738;965.0471;;;;
2020/02/08 15:42:51;;;;;;;14.2;11.6;;;;;;;7.53;60.19238;965.1286;;;;
2020/02/08 15:44:57;;;;;;;15.6;12.2;;;;;;;7.46;58.0459;965.189;;;;
2020/02/08 15:47:30;;;;;;;15.7;12;;;;;;;7.47;58.11523;965.2252;;;;
2020/02/08 15:49:57;;;;;;;14.8;11.9;;;;;;;7.41;58.80566;965.2001;;;;
2020/02/08 15:52:19;;;;;;;14.7;11.2;;;;;;;7.39;58.48145;965.2431;;;;
2020/02/08 15:59:33;;;;;;;15.5;12.6;;;;;;;7.16;61.60254;965.2953;;;;
2020/02/08 16:02:09;;;;;;;14.4;12.1;;;;;;;7.04;61.57324;965.3253;;;;
2020/02/08 16:09:19;;;;;;;16.4;12.9;;;;;;;6.88;62.36035;965.3975;;;;
2020/02/08 16:11:46;;;;;;;18.3;13;;;;;;;6.83;62.16992;965.3494;;;;
2020/02/08 16:16:52;;;;;;;16.8;13.6;;;;;;;6.71;62.43848;965.376;;;;
2020/02/08 16:19:01;;;;;;;18.3;13.9;;;;;;;6.81;62.70508;965.4208;;;;
2020/02/08 16:21:57;;;;;;;20.1;14.4;;;;;;;6.76;62.75391;965.4033;;;;
2020/02/08 16:23:52;;;;;;;18.1;14.5;;;;;;;6.64;64.27539;965.4601;;;;
2020/02/08 16:26:20;;;;;;;17.5;14.3;;;;;;;6.6;63.87109;965.4511;;;;
2020/02/08 16:29:16;;;;;;;18.3;15;;;;;;;6.41;64.82324;965.4495;;;;
2020/02/08 16:31:02;;;;;;;17.4;14.7;;;;;;;6.45;64.6123;965.4664;;;;
2020/02/08 16:33:24;;;;;;;19.3;15.6;;;;;;;6.35;65.34961;965.4565;;;;
2020/02/08 16:36:24;;;;;;;16.8;14.6;;;;;;;6.27;65.51953;965.4885;;;;
2020/02/08 16:38:14;;;;;;;16.7;14.4;;;;;;;6.25;65.61914;965.5295;;;;
2020/02/08 16:40:48;;;;;;;16;14.3;;;;;;;6.23;66.15137;965.5516;;;;
2020/02/08 16:44:18;;;;;;;16.5;14.8;;;;;;;6.06;67.86816;965.6021;;;;
2020/02/08 16:48:00;;;;;;;17.8;15.8;;;;;;;5.99;68.49414;965.6262;;;;
2020/02/08 16:57:43;;;;;;;20.8;17.7;;;;;;;5.86;69.15723;965.7361;;;;
2020/02/08 17:02:49;;;;;;;20;17.3;;;;;;;5.89;68.22852;965.7108;;;;
2020/02/08 17:05:00;;;;;;;20.2;17.5;;;;;;;5.85;68.7334;965.7236;;;;
2020/02/08 17:07:16;;;;;;;19.9;16.8;;;;;;;5.78;70.16699;965.7527;;;;
2020/02/08 17:10:01;;;;;;;18.1;16.2;;;;;;;5.69;70.6875;965.8439;;;;
2020/02/08 17:12:19;;;;;;;18.1;16.2;;;;;;;5.66;70.68262;965.8636;;;;
2020/02/08 17:14:33;;;;;;;22.7;17.7;;;;;;;5.55;70.71094;965.812;;;;
2020/02/08 17:17:04;;;;;;;29.6;23.3;;;;;;;5.56;70.35938;965.8011;;;;
2020/02/08 17:19:36;;;;;;;26;20.4;;;;;;;5.62;70.36816;965.8354;;;;
2020/02/08 17:21:58;;;;;;;25.5;22.6;;;;;;;5.67;70.22949;965.8421;;;;
2020/02/08 17:24:23;;;;;;;33.7;28.5;;;;;;;5.67;70.05957;965.877;;;;
2020/02/08 17:26:48;;;;;;;33;27.8;;;;;;;5.61;70.56152;965.8588;;;;